createdAt,value
2022-10-17T00:03:12.693Z,5.38
2022-10-17T00:08:16.198Z,4.80
2022-10-17T00:13:17.837Z,4.80
2022-10-17T00:18:19.601Z,4.40
2022-10-17T00:23:21.325Z,4.75
2022-10-17T00:28:23.136Z,4.80
2022-10-17T00:33:25.109Z,4.13
2022-10-17T00:38:26.767Z,4.85
2022-10-17T00:43:29.744Z,4.47
2022-10-17T00:48:31.466Z,4.50
2022-10-17T00:53:34.580Z,5.03
2022-10-17T00:58:36.246Z,4.65
2022-10-17T01:03:38.009Z,6.15
2022-10-17T01:08:39.999Z,4.93
2022-10-17T01:14:31.303Z,5.13
2022-10-17T01:20:11.156Z,4.82
2022-10-17T01:26:14.301Z,4.88
2022-10-17T01:31:22.616Z,5.22
2022-10-17T01:37:03.681Z,5.13
2022-10-17T01:42:31.357Z,4.72
2022-10-17T01:47:34.534Z,5.22
2022-10-17T01:52:44.944Z,5.30
2022-10-17T01:57:54.841Z,5.22
2022-10-17T02:03:04.514Z,4.70
2022-10-17T02:08:07.019Z,5.13
2022-10-17T02:13:39.529Z,4.80
2022-10-17T02:19:01.740Z,4.82
2022-10-17T02:24:07.988Z,4.70
2022-10-17T02:29:18.651Z,5.38
2022-10-17T02:34:32.038Z,4.80
2022-10-17T02:39:36.513Z,5.20
2022-10-17T02:44:43.941Z,5.82
2022-10-17T02:49:50.717Z,4.70
2022-10-17T02:55:06.179Z,4.72
2022-10-17T03:00:31.266Z,4.60
2022-10-17T03:05:32.887Z,5.00
2022-10-17T03:10:34.544Z,5.07
2022-10-17T03:15:36.286Z,4.63
2022-10-17T03:20:44.907Z,5.00
2022-10-17T03:25:47.620Z,4.85
2022-10-17T03:30:55.449Z,4.53
2022-10-17T03:35:58.126Z,4.53
2022-10-17T03:40:59.749Z,4.50
2022-10-17T03:46:01.688Z,4.22
2022-10-17T03:51:06.579Z,4.72
2022-10-17T03:56:27.748Z,4.57
2022-10-17T04:01:29.469Z,4.75
2022-10-17T04:06:31.138Z,4.45
2022-10-17T04:11:33.289Z,4.60
2022-10-17T04:16:35.043Z,4.65
2022-10-17T04:21:36.715Z,4.40
2022-10-17T04:26:38.406Z,5.22
2022-10-17T04:31:40.032Z,4.80
2022-10-17T04:36:41.802Z,5.10
2022-10-17T04:41:44.693Z,4.50
2022-10-17T04:46:47.426Z,4.95
2022-10-17T04:51:49.065Z,4.95
2022-10-17T04:56:50.786Z,4.95
2022-10-17T05:01:52.444Z,5.00
2022-10-17T05:06:54.206Z,5.13
2022-10-17T05:11:55.981Z,4.80
2022-10-17T05:16:57.693Z,5.68
2022-10-17T05:21:59.375Z,5.32
2022-10-17T05:27:18.190Z,5.57
2022-10-17T05:32:31.499Z,4.88
2022-10-17T05:37:33.428Z,4.90
2022-10-17T05:42:35.139Z,5.00
2022-10-17T05:47:36.921Z,4.97
2022-10-17T05:52:38.563Z,4.95
2022-10-17T05:57:40.255Z,5.00
2022-10-17T06:02:43.117Z,5.80
2022-10-17T06:07:44.875Z,5.30
2022-10-17T06:12:46.577Z,5.07
2022-10-17T06:17:48.210Z,5.35
2022-10-17T06:22:49.936Z,5.35
2022-10-17T06:32:58.423Z,4.75
2022-10-17T06:38:00.113Z,5.38
2022-10-17T06:43:01.801Z,4.75
2022-10-17T06:48:03.484Z,5.78
2022-10-17T06:53:05.395Z,5.10
2022-10-17T06:58:07.021Z,5.47
2022-10-17T07:03:08.684Z,5.10
2022-10-17T07:08:11.308Z,5.35
2022-10-17T07:13:13.242Z,4.70
2022-10-17T07:18:15.359Z,5.60
2022-10-17T07:23:17.117Z,5.05
2022-10-17T07:28:19.573Z,4.35
2022-10-17T07:33:21.382Z,5.60
2022-10-17T07:38:23.009Z,4.90
2022-10-17T07:43:25.775Z,4.88
2022-10-17T07:48:27.447Z,4.38
2022-10-17T07:53:29.105Z,4.35
2022-10-17T07:58:31.511Z,4.80
2022-10-17T08:03:33.230Z,4.80
2022-10-17T08:08:34.905Z,5.30
2022-10-17T08:13:39.019Z,4.40
2022-10-17T08:18:41.945Z,4.35
2022-10-17T08:23:44.600Z,4.70
2022-10-17T08:28:47.131Z,4.55
2022-10-17T08:33:50.240Z,4.35
2022-10-17T08:38:53.100Z,4.63
2022-10-17T08:44:14.462Z,4.65
2022-10-17T08:49:36.311Z,4.22
2022-10-17T08:54:45.498Z,4.13
2022-10-17T08:59:52.186Z,4.00
2022-10-17T09:05:07.182Z,4.28
2022-10-17T09:10:18.659Z,4.50
2022-10-17T09:15:38.833Z,4.38
2022-10-17T09:20:52.601Z,4.28
2022-10-17T09:25:56.526Z,4.47
2022-10-17T09:31:20.022Z,4.47
2022-10-17T09:36:25.932Z,4.22
2022-10-17T09:41:51.793Z,3.85
2022-10-17T09:46:53.385Z,3.63
2022-10-17T09:51:55.418Z,4.20
2022-10-17T09:57:01.912Z,3.97
2022-10-17T10:02:12.637Z,4.00
2022-10-17T10:07:14.379Z,4.22
2022-10-17T10:12:28.249Z,4.30
2022-10-17T10:17:38.249Z,3.63
2022-10-17T10:22:40.117Z,3.80
2022-10-17T10:27:44.181Z,3.60
2022-10-17T10:32:48.909Z,4.18
2022-10-17T10:37:57.220Z,3.40
2022-10-17T10:43:05.059Z,3.70
2022-10-17T10:48:19.930Z,3.92
2022-10-17T10:53:43.225Z,3.28
2022-10-17T10:59:00.063Z,3.65
2022-10-17T11:04:33.134Z,2.88
2022-10-17T11:09:59.424Z,3.65
2022-10-17T11:15:20.870Z,3.42
2022-10-17T11:20:43.522Z,3.80
2022-10-17T11:25:45.608Z,3.65
2022-10-17T11:31:25.019Z,3.83
2022-10-17T11:36:30.563Z,3.72
2022-10-17T11:41:42.100Z,4.38
2022-10-17T11:46:46.149Z,3.70
2022-10-17T11:52:00.268Z,4.03
2022-10-17T11:57:29.924Z,3.90
2022-10-17T12:02:56.583Z,5.07
2022-10-17T12:08:06.592Z,3.75
2022-10-17T12:13:33.080Z,4.30
2022-10-17T12:18:34.730Z,4.07
2022-10-17T12:23:38.822Z,3.85
2022-10-17T12:28:58.884Z,3.90
2022-10-17T12:34:02.988Z,3.75
2022-10-17T12:39:06.435Z,4.30
2022-10-17T12:44:14.131Z,3.92
2022-10-17T12:49:37.501Z,4.45
2022-10-17T12:54:48.131Z,3.60
2022-10-17T13:00:16.135Z,3.97
2022-10-17T13:05:27.171Z,3.90
2022-10-17T13:10:33.576Z,3.58
2022-10-17T13:15:37.054Z,4.05
2022-10-17T13:20:38.657Z,4.00
2022-10-17T13:25:40.297Z,4.07
2022-10-17T13:30:47.359Z,3.90
2022-10-17T13:36:06.423Z,3.80
2022-10-17T13:46:38.316Z,3.30
2022-10-17T13:51:49.693Z,3.55
2022-10-17T13:56:57.427Z,3.03
2022-10-17T14:02:01.772Z,3.65
2022-10-17T14:12:12.902Z,3.08
2022-10-17T14:17:34.977Z,2.95
2022-10-17T14:22:37.118Z,3.25
2022-10-17T14:28:03.242Z,3.42
2022-10-17T14:33:11.358Z,3.53
2022-10-17T14:38:15.787Z,15.48
2022-10-17T14:43:22.361Z,8.57
2022-10-17T14:48:25.808Z,3.92
2022-10-17T14:53:29.983Z,3.70
2022-10-17T14:58:34.645Z,3.70
2022-10-17T15:03:36.377Z,4.25
2022-10-17T15:08:38.308Z,3.80
2022-10-17T15:13:44.657Z,3.00
2022-10-17T15:18:48.102Z,3.90
2022-10-17T15:23:50.370Z,3.47
2022-10-17T15:28:53.910Z,3.47
2022-10-17T15:33:55.708Z,4.00
2022-10-17T15:38:59.808Z,3.00
2022-10-17T15:44:01.442Z,3.80
2022-10-17T15:49:10.112Z,3.42
2022-10-17T15:59:18.398Z,3.42
2022-10-17T16:04:20.068Z,3.33
2022-10-17T16:09:21.810Z,3.97
2022-10-17T16:14:23.545Z,3.67
2022-10-17T16:19:29.774Z,4.20
2022-10-17T16:24:31.473Z,3.38
2022-10-17T16:29:33.524Z,3.40
2022-10-17T16:34:35.273Z,3.35
2022-10-17T16:39:37.304Z,3.20
2022-10-17T16:44:39.032Z,3.30
2022-10-17T16:49:44.411Z,3.40
2022-10-17T16:54:47.105Z,2.85
2022-10-17T16:59:48.786Z,3.50
2022-10-17T17:10:12.714Z,4.30
2022-10-17T17:15:14.604Z,5.03
2022-10-17T17:20:16.289Z,4.40
2022-10-17T17:25:20.106Z,4.90
2022-10-17T17:30:21.880Z,5.38
2022-10-17T17:35:47.421Z,6.10
2022-10-17T17:40:51.058Z,5.07
2022-10-17T17:45:53.170Z,5.45
2022-10-17T17:51:02.651Z,5.93
2022-10-17T17:56:17.775Z,5.57
2022-10-17T18:01:25.793Z,6.25
2022-10-17T18:06:28.397Z,6.20
2022-10-17T18:11:30.423Z,6.82
2022-10-17T18:16:34.166Z,6.78
2022-10-17T18:21:37.252Z,6.07
2022-10-17T18:27:20.578Z,6.40
2022-10-17T18:32:22.313Z,5.47
2022-10-17T18:37:23.925Z,6.63
2022-10-17T18:42:25.629Z,5.65
2022-10-17T18:47:29.436Z,5.82
2022-10-17T18:52:31.356Z,5.93
2022-10-17T18:57:33.132Z,6.18
2022-10-17T19:02:38.043Z,6.47
2022-10-17T19:07:39.930Z,5.97
2022-10-17T19:12:41.582Z,6.10
2022-10-17T19:17:43.375Z,5.78
2022-10-17T19:22:45.086Z,6.20
2022-10-17T19:27:46.803Z,6.15
2022-10-17T19:32:48.591Z,6.28
2022-10-17T19:37:50.599Z,6.70
2022-10-17T19:42:52.351Z,6.78
2022-10-17T19:47:54.012Z,6.55
2022-10-17T19:52:55.713Z,7.28
2022-10-17T19:57:59.120Z,7.00
2022-10-17T20:03:02.368Z,6.85
2022-10-17T20:08:04.560Z,7.35
2022-10-17T20:13:06.400Z,7.20
2022-10-17T20:18:08.941Z,8.63
2022-10-17T20:23:10.669Z,7.80
2022-10-17T20:28:12.597Z,8.23
2022-10-17T20:33:15.610Z,9.18
2022-10-17T20:38:17.441Z,9.93
2022-10-17T20:43:19.150Z,8.98
2022-10-17T20:48:20.850Z,8.82
2022-10-17T20:53:36.544Z,9.80
2022-10-17T20:58:39.505Z,9.77
2022-10-17T21:03:44.017Z,9.43
2022-10-17T21:08:49.255Z,10.43
2022-10-17T21:13:59.481Z,9.90
2022-10-17T21:19:03.614Z,11.38
2022-10-17T21:24:09.047Z,10.38
2022-10-17T21:29:12.638Z,10.40
2022-10-17T21:34:18.890Z,9.83
2022-10-17T21:39:21.842Z,9.30
2022-10-17T21:44:25.690Z,9.77
2022-10-17T21:49:27.638Z,8.53
2022-10-17T21:54:29.333Z,7.70
2022-10-17T21:59:31.899Z,7.82
2022-10-17T22:04:48.709Z,7.43
2022-10-17T22:09:50.410Z,8.18
2022-10-17T22:14:52.080Z,9.20
2022-10-17T22:19:53.750Z,8.85
2022-10-17T22:24:55.448Z,10.45
2022-10-17T22:29:57.124Z,10.48
2022-10-17T22:34:58.794Z,8.90
2022-10-17T22:40:01.594Z,9.25
2022-10-17T22:45:04.313Z,10.15
2022-10-17T22:50:06.194Z,10.07
2022-10-17T22:55:09.905Z,11.40
2022-10-17T23:00:13.626Z,10.03
2022-10-17T23:05:15.410Z,10.17
2022-10-17T23:10:23.205Z,10.10
2022-10-17T23:15:26.065Z,8.70
2022-10-17T23:20:29.083Z,10.38
2022-10-17T23:25:32.811Z,10.77
2022-10-17T23:30:35.428Z,12.33
2022-10-17T23:35:37.217Z,10.65
2022-10-17T23:40:39.002Z,11.45
2022-10-17T23:50:43.301Z,13.73
2022-10-17T23:55:44.972Z,13.07
